sensor_id;sensor_type;location;lat;lon;timestamp;P1;durP1;ratioP1;P2;durP2;ratioP2
18042;SDS011;9146;48.074;11.968;2022-12-11T00:01:53;36.20;;;19.10;;
18042;SDS011;9146;48.074;11.968;2022-12-11T00:04:20;31.63;;;18.87;;
18042;SDS011;9146;48.074;11.968;2022-12-11T00:06:46;31.80;;;17.07;;
18042;SDS011;9146;48.074;11.968;2022-12-11T00:09:14;32.57;;;18.87;;
18042;SDS011;9146;48.074;11.968;2022-12-11T00:11:43;27.70;;;17.23;;
18042;SDS011;9146;48.074;11.968;2022-12-11T00:14:10;28.13;;;17.10;;
18042;SDS011;9146;48.074;11.968;2022-12-11T00:16:38;28.67;;;17.90;;
18042;SDS011;9146;48.074;11.968;2022-12-11T00:19:05;32.23;;;18.13;;
18042;SDS011;9146;48.074;11.968;2022-12-11T00:21:32;30.70;;;18.80;;
18042;SDS011;9146;48.074;11.968;2022-12-11T00:23:59;28.53;;;18.10;;
18042;SDS011;9146;48.074;11.968;2022-12-11T00:26:27;28.30;;;17.57;;
18042;SDS011;9146;48.074;11.968;2022-12-11T00:28:55;23.90;;;15.13;;
18042;SDS011;9146;48.074;11.968;2022-12-11T00:31:23;30.43;;;16.77;;
18042;SDS011;9146;48.074;11.968;2022-12-11T00:33:50;27.07;;;16.03;;
18042;SDS011;9146;48.074;11.968;2022-12-11T00:36:18;29.93;;;17.20;;
18042;SDS011;9146;48.074;11.968;2022-12-11T00:38:47;26.20;;;17.40;;
18042;SDS011;9146;48.074;11.968;2022-12-11T00:41:14;28.97;;;16.73;;
18042;SDS011;9146;48.074;11.968;2022-12-11T00:43:41;30.80;;;16.93;;
18042;SDS011;9146;48.074;11.968;2022-12-11T00:46:10;24.40;;;15.40;;
18042;SDS011;9146;48.074;11.968;2022-12-11T00:48:37;33.00;;;17.87;;
18042;SDS011;9146;48.074;11.968;2022-12-11T00:51:04;26.00;;;16.43;;
18042;SDS011;9146;48.074;11.968;2022-12-11T00:53:31;28.23;;;16.97;;
18042;SDS011;9146;48.074;11.968;2022-12-11T00:55:58;28.70;;;16.40;;
18042;SDS011;9146;48.074;11.968;2022-12-11T00:58:25;33.00;;;16.70;;
18042;SDS011;9146;48.074;11.968;2022-12-11T01:00:52;28.30;;;16.30;;
18042;SDS011;9146;48.074;11.968;2022-12-11T01:03:20;27.17;;;16.40;;
18042;SDS011;9146;48.074;11.968;2022-12-11T01:05:51;29.33;;;16.33;;
18042;SDS011;9146;48.074;11.968;2022-12-11T01:08:18;28.43;;;17.60;;
18042;SDS011;9146;48.074;11.968;2022-12-11T01:10:45;30.00;;;18.03;;
18042;SDS011;9146;48.074;11.968;2022-12-11T01:13:11;29.83;;;17.17;;
18042;SDS011;9146;48.074;11.968;2022-12-11T01:15:38;30.17;;;17.40;;
18042;SDS011;9146;48.074;11.968;2022-12-11T01:18:06;28.77;;;17.60;;
18042;SDS011;9146;48.074;11.968;2022-12-11T01:20:36;28.67;;;16.15;;
18042;SDS011;9146;48.074;11.968;2022-12-11T01:23:03;28.03;;;17.33;;
18042;SDS011;9146;48.074;11.968;2022-12-11T01:25:30;28.10;;;15.87;;
18042;SDS011;9146;48.074;11.968;2022-12-11T01:27:57;32.43;;;18.10;;
18042;SDS011;9146;48.074;11.968;2022-12-11T01:30:24;27.03;;;15.93;;
18042;SDS011;9146;48.074;11.968;2022-12-11T01:32:51;29.80;;;15.50;;
18042;SDS011;9146;48.074;11.968;2022-12-11T01:35:18;24.33;;;14.70;;
18042;SDS011;9146;48.074;11.968;2022-12-11T01:37:47;26.73;;;16.20;;
18042;SDS011;9146;48.074;11.968;2022-12-11T01:40:14;29.03;;;16.53;;
18042;SDS011;9146;48.074;11.968;2022-12-11T01:42:42;26.67;;;16.90;;
18042;SDS011;9146;48.074;11.968;2022-12-11T01:47:54;26.20;;;15.90;;
18042;SDS011;9146;48.074;11.968;2022-12-11T01:50:26;24.30;;;15.60;;
18042;SDS011;9146;48.074;11.968;2022-12-11T01:52:55;27.40;;;17.83;;
18042;SDS011;9146;48.074;11.968;2022-12-11T01:55:22;24.00;;;15.83;;
18042;SDS011;9146;48.074;11.968;2022-12-11T01:57:50;29.23;;;16.93;;
18042;SDS011;9146;48.074;11.968;2022-12-11T02:00:18;31.30;;;17.77;;
18042;SDS011;9146;48.074;11.968;2022-12-11T02:02:45;27.53;;;16.60;;
18042;SDS011;9146;48.074;11.968;2022-12-11T02:05:12;29.80;;;17.97;;
18042;SDS011;9146;48.074;11.968;2022-12-11T02:07:40;31.25;;;20.73;;
18042;SDS011;9146;48.074;11.968;2022-12-11T02:10:12;27.03;;;16.27;;
18042;SDS011;9146;48.074;11.968;2022-12-11T02:12:41;25.57;;;16.33;;
18042;SDS011;9146;48.074;11.968;2022-12-11T02:15:19;27.13;;;15.77;;
18042;SDS011;9146;48.074;11.968;2022-12-11T02:17:53;23.40;;;14.70;;
18042;SDS011;9146;48.074;11.968;2022-12-11T02:20:29;25.13;;;15.70;;
18042;SDS011;9146;48.074;11.968;2022-12-11T02:23:05;24.87;;;14.73;;
18042;SDS011;9146;48.074;11.968;2022-12-11T02:25:49;27.13;;;16.00;;
18042;SDS011;9146;48.074;11.968;2022-12-11T02:28:24;31.07;;;15.07;;
18042;SDS011;9146;48.074;11.968;2022-12-11T02:31:04;26.23;;;15.77;;
18042;SDS011;9146;48.074;11.968;2022-12-11T02:33:38;27.40;;;15.47;;
18042;SDS011;9146;48.074;11.968;2022-12-11T02:36:09;25.07;;;15.23;;
18042;SDS011;9146;48.074;11.968;2022-12-11T02:38:39;27.70;;;14.17;;
18042;SDS011;9146;48.074;11.968;2022-12-11T02:41:10;23.37;;;14.90;;
18042;SDS011;9146;48.074;11.968;2022-12-11T02:43:39;26.83;;;16.55;;
18042;SDS011;9146;48.074;11.968;2022-12-11T02:46:07;24.97;;;15.57;;
18042;SDS011;9146;48.074;11.968;2022-12-11T02:48:35;28.77;;;16.90;;
18042;SDS011;9146;48.074;11.968;2022-12-11T02:51:05;29.00;;;18.25;;
18042;SDS011;9146;48.074;11.968;2022-12-11T02:53:34;24.83;;;15.60;;
18042;SDS011;9146;48.074;11.968;2022-12-11T02:56:06;23.83;;;15.17;;
18042;SDS011;9146;48.074;11.968;2022-12-11T02:58:36;26.90;;;16.00;;
18042;SDS011;9146;48.074;11.968;2022-12-11T03:01:11;25.07;;;15.97;;
18042;SDS011;9146;48.074;11.968;2022-12-11T03:03:38;25.03;;;15.80;;
18042;SDS011;9146;48.074;11.968;2022-12-11T03:06:05;28.33;;;16.30;;
18042;SDS011;9146;48.074;11.968;2022-12-11T03:08:33;20.70;;;12.13;;
18042;SDS011;9146;48.074;11.968;2022-12-11T03:11:00;22.03;;;14.40;;
18042;SDS011;9146;48.074;11.968;2022-12-11T03:13:27;27.00;;;14.83;;
18042;SDS011;9146;48.074;11.968;2022-12-11T03:15:59;22.43;;;13.83;;
18042;SDS011;9146;48.074;11.968;2022-12-11T03:18:33;22.20;;;13.00;;
18042;SDS011;9146;48.074;11.968;2022-12-11T03:21:05;21.43;;;14.03;;
18042;SDS011;9146;48.074;11.968;2022-12-11T03:23:38;26.10;;;15.17;;
18042;SDS011;9146;48.074;11.968;2022-12-11T03:26:10;23.60;;;13.60;;
18042;SDS011;9146;48.074;11.968;2022-12-11T03:28:40;22.93;;;15.50;;
18042;SDS011;9146;48.074;11.968;2022-12-11T03:31:13;22.70;;;15.40;;
18042;SDS011;9146;48.074;11.968;2022-12-11T03:33:47;19.27;;;13.50;;
18042;SDS011;9146;48.074;11.968;2022-12-11T03:36:19;20.30;;;13.20;;
18042;SDS011;9146;48.074;11.968;2022-12-11T03:38:51;18.10;;;12.03;;
18042;SDS011;9146;48.074;11.968;2022-12-11T03:41:21;18.23;;;11.90;;
18042;SDS011;9146;48.074;11.968;2022-12-11T03:43:51;18.37;;;12.30;;
18042;SDS011;9146;48.074;11.968;2022-12-11T03:46:23;18.53;;;11.90;;
18042;SDS011;9146;48.074;11.968;2022-12-11T03:48:53;20.37;;;12.40;;
18042;SDS011;9146;48.074;11.968;2022-12-11T03:51:23;16.20;;;11.33;;
18042;SDS011;9146;48.074;11.968;2022-12-11T03:53:52;20.37;;;12.10;;
18042;SDS011;9146;48.074;11.968;2022-12-11T03:56:20;20.00;;;13.07;;
18042;SDS011;9146;48.074;11.968;2022-12-11T03:58:48;20.33;;;12.90;;
18042;SDS011;9146;48.074;11.968;2022-12-11T04:01:15;17.30;;;11.63;;
18042;SDS011;9146;48.074;11.968;2022-12-11T04:03:44;17.77;;;12.67;;
18042;SDS011;9146;48.074;11.968;2022-12-11T04:06:11;16.97;;;11.53;;
18042;SDS011;9146;48.074;11.968;2022-12-11T04:08:38;19.17;;;11.70;;
18042;SDS011;9146;48.074;11.968;2022-12-11T04:11:05;19.17;;;12.67;;
18042;SDS011;9146;48.074;11.968;2022-12-11T04:13:49;17.17;;;11.07;;
18042;SDS011;9146;48.074;11.968;2022-12-11T04:16:36;20.17;;;12.77;;
18042;SDS011;9146;48.074;11.968;2022-12-11T04:19:03;19.00;;;11.63;;
18042;SDS011;9146;48.074;11.968;2022-12-11T04:21:48;17.20;;;10.87;;
18042;SDS011;9146;48.074;11.968;2022-12-11T04:24:32;18.37;;;11.03;;
18042;SDS011;9146;48.074;11.968;2022-12-11T04:26:59;18.67;;;11.20;;
18042;SDS011;9146;48.074;11.968;2022-12-11T04:29:26;16.97;;;11.67;;
18042;SDS011;9146;48.074;11.968;2022-12-11T04:31:53;13.50;;;9.10;;
18042;SDS011;9146;48.074;11.968;2022-12-11T04:34:21;16.87;;;11.83;;
18042;SDS011;9146;48.074;11.968;2022-12-11T04:36:48;16.60;;;11.17;;
18042;SDS011;9146;48.074;11.968;2022-12-11T04:39:15;20.57;;;10.77;;
18042;SDS011;9146;48.074;11.968;2022-12-11T04:41:42;16.57;;;11.10;;
18042;SDS011;9146;48.074;11.968;2022-12-11T04:44:09;17.90;;;10.53;;
18042;SDS011;9146;48.074;11.968;2022-12-11T04:46:36;15.90;;;9.30;;
18042;SDS011;9146;48.074;11.968;2022-12-11T04:49:03;16.30;;;10.83;;
18042;SDS011;9146;48.074;11.968;2022-12-11T04:51:31;18.10;;;11.17;;
18042;SDS011;9146;48.074;11.968;2022-12-11T04:53:58;14.13;;;10.07;;
18042;SDS011;9146;48.074;11.968;2022-12-11T04:56:25;15.00;;;9.33;;
18042;SDS011;9146;48.074;11.968;2022-12-11T04:58:52;15.03;;;10.30;;
18042;SDS011;9146;48.074;11.968;2022-12-11T05:01:19;13.87;;;9.63;;
18042;SDS011;9146;48.074;11.968;2022-12-11T05:03:48;16.07;;;10.17;;
18042;SDS011;9146;48.074;11.968;2022-12-11T05:06:15;18.07;;;9.63;;
18042;SDS011;9146;48.074;11.968;2022-12-11T05:08:44;16.17;;;10.90;;
18042;SDS011;9146;48.074;11.968;2022-12-11T05:11:11;17.17;;;10.60;;
18042;SDS011;9146;48.074;11.968;2022-12-11T05:13:40;12.87;;;9.93;;
18042;SDS011;9146;48.074;11.968;2022-12-11T05:16:07;16.40;;;11.33;;
18042;SDS011;9146;48.074;11.968;2022-12-11T05:18:35;15.57;;;10.23;;
18042;SDS011;9146;48.074;11.968;2022-12-11T05:21:03;15.70;;;10.87;;
18042;SDS011;9146;48.074;11.968;2022-12-11T05:23:31;15.20;;;10.00;;
18042;SDS011;9146;48.074;11.968;2022-12-11T05:26:00;13.13;;;9.27;;
18042;SDS011;9146;48.074;11.968;2022-12-11T05:28:30;13.20;;;9.17;;
18042;SDS011;9146;48.074;11.968;2022-12-11T05:31:00;12.13;;;8.37;;
18042;SDS011;9146;48.074;11.968;2022-12-11T05:33:28;12.70;;;9.60;;
18042;SDS011;9146;48.074;11.968;2022-12-11T05:35:55;14.67;;;9.53;;
18042;SDS011;9146;48.074;11.968;2022-12-11T05:38:22;16.97;;;11.13;;
18042;SDS011;9146;48.074;11.968;2022-12-11T05:40:56;14.87;;;9.40;;
18042;SDS011;9146;48.074;11.968;2022-12-11T05:43:25;14.73;;;10.00;;
18042;SDS011;9146;48.074;11.968;2022-12-11T05:45:53;11.80;;;8.93;;
18042;SDS011;9146;48.074;11.968;2022-12-11T05:48:20;12.83;;;8.93;;
18042;SDS011;9146;48.074;11.968;2022-12-11T05:50:57;14.87;;;10.97;;
18042;SDS011;9146;48.074;11.968;2022-12-11T05:53:24;13.73;;;10.10;;
18042;SDS011;9146;48.074;11.968;2022-12-11T05:55:51;16.07;;;11.77;;
18042;SDS011;9146;48.074;11.968;2022-12-11T05:58:18;16.43;;;10.20;;
18042;SDS011;9146;48.074;11.968;2022-12-11T06:00:47;13.97;;;9.80;;
18042;SDS011;9146;48.074;11.968;2022-12-11T06:03:14;16.07;;;9.93;;
18042;SDS011;9146;48.074;11.968;2022-12-11T06:05:41;17.70;;;9.90;;
18042;SDS011;9146;48.074;11.968;2022-12-11T06:08:08;12.60;;;9.23;;
18042;SDS011;9146;48.074;11.968;2022-12-11T06:10:35;13.40;;;9.30;;
18042;SDS011;9146;48.074;11.968;2022-12-11T06:13:02;15.50;;;9.27;;
18042;SDS011;9146;48.074;11.968;2022-12-11T06:15:29;14.90;;;10.37;;
18042;SDS011;9146;48.074;11.968;2022-12-11T06:17:57;14.00;;;8.70;;
18042;SDS011;9146;48.074;11.968;2022-12-11T06:20:24;12.77;;;9.23;;
18042;SDS011;9146;48.074;11.968;2022-12-11T06:22:51;15.20;;;8.77;;
18042;SDS011;9146;48.074;11.968;2022-12-11T06:25:18;16.87;;;8.43;;
18042;SDS011;9146;48.074;11.968;2022-12-11T06:27:45;12.40;;;9.40;;
18042;SDS011;9146;48.074;11.968;2022-12-11T06:30:12;13.10;;;8.30;;
18042;SDS011;9146;48.074;11.968;2022-12-11T06:32:39;10.43;;;7.80;;
18042;SDS011;9146;48.074;11.968;2022-12-11T06:35:07;12.30;;;8.50;;
18042;SDS011;9146;48.074;11.968;2022-12-11T06:37:35;12.47;;;8.87;;
18042;SDS011;9146;48.074;11.968;2022-12-11T06:40:03;14.73;;;9.00;;
18042;SDS011;9146;48.074;11.968;2022-12-11T06:42:31;16.77;;;8.50;;
18042;SDS011;9146;48.074;11.968;2022-12-11T06:44:57;12.20;;;8.17;;
18042;SDS011;9146;48.074;11.968;2022-12-11T06:47:24;14.87;;;9.67;;
18042;SDS011;9146;48.074;11.968;2022-12-11T06:49:51;13.97;;;9.07;;
18042;SDS011;9146;48.074;11.968;2022-12-11T06:52:20;16.40;;;10.33;;
18042;SDS011;9146;48.074;11.968;2022-12-11T06:54:47;14.40;;;9.97;;
18042;SDS011;9146;48.074;11.968;2022-12-11T06:57:14;14.47;;;10.00;;
18042;SDS011;9146;48.074;11.968;2022-12-11T06:59:41;15.57;;;10.90;;
18042;SDS011;9146;48.074;11.968;2022-12-11T07:02:09;17.37;;;9.83;;
18042;SDS011;9146;48.074;11.968;2022-12-11T07:04:38;14.47;;;9.63;;
18042;SDS011;9146;48.074;11.968;2022-12-11T07:07:05;15.20;;;10.23;;
18042;SDS011;9146;48.074;11.968;2022-12-11T07:09:34;16.00;;;9.60;;
18042;SDS011;9146;48.074;11.968;2022-12-11T07:12:02;16.57;;;10.47;;
18042;SDS011;9146;48.074;11.968;2022-12-11T07:14:30;13.67;;;9.37;;
18042;SDS011;9146;48.074;11.968;2022-12-11T07:16:57;14.43;;;9.00;;
18042;SDS011;9146;48.074;11.968;2022-12-11T07:19:24;13.90;;;9.37;;
18042;SDS011;9146;48.074;11.968;2022-12-11T07:21:51;12.97;;;9.40;;
18042;SDS011;9146;48.074;11.968;2022-12-11T07:24:18;15.17;;;9.87;;
18042;SDS011;9146;48.074;11.968;2022-12-11T07:26:47;12.33;;;8.17;;
18042;SDS011;9146;48.074;11.968;2022-12-11T07:29:14;12.17;;;9.67;;
18042;SDS011;9146;48.074;11.968;2022-12-11T07:31:41;17.33;;;10.90;;
18042;SDS011;9146;48.074;11.968;2022-12-11T07:34:10;19.80;;;11.30;;
18042;SDS011;9146;48.074;11.968;2022-12-11T07:36:38;15.17;;;10.40;;
18042;SDS011;9146;48.074;11.968;2022-12-11T07:39:05;15.27;;;9.83;;
18042;SDS011;9146;48.074;11.968;2022-12-11T07:41:33;15.40;;;10.43;;
18042;SDS011;9146;48.074;11.968;2022-12-11T07:44:02;17.30;;;10.20;;
18042;SDS011;9146;48.074;11.968;2022-12-11T07:46:30;17.70;;;11.23;;
18042;SDS011;9146;48.074;11.968;2022-12-11T07:48:58;13.97;;;9.27;;
18042;SDS011;9146;48.074;11.968;2022-12-11T07:51:26;16.73;;;9.70;;
18042;SDS011;9146;48.074;11.968;2022-12-11T07:53:55;16.00;;;9.37;;
18042;SDS011;9146;48.074;11.968;2022-12-11T07:56:24;16.37;;;10.37;;
18042;SDS011;9146;48.074;11.968;2022-12-11T07:58:51;13.53;;;9.43;;
18042;SDS011;9146;48.074;11.968;2022-12-11T08:01:20;15.33;;;10.07;;
18042;SDS011;9146;48.074;11.968;2022-12-11T08:03:50;13.50;;;9.47;;
18042;SDS011;9146;48.074;11.968;2022-12-11T08:06:18;12.60;;;9.53;;
18042;SDS011;9146;48.074;11.968;2022-12-11T08:08:49;15.00;;;9.47;;
18042;SDS011;9146;48.074;11.968;2022-12-11T08:11:16;10.57;;;7.93;;
18042;SDS011;9146;48.074;11.968;2022-12-11T08:13:43;15.57;;;10.40;;
18042;SDS011;9146;48.074;11.968;2022-12-11T08:16:11;17.57;;;10.67;;
18042;SDS011;9146;48.074;11.968;2022-12-11T08:18:41;15.23;;;9.70;;
18042;SDS011;9146;48.074;11.968;2022-12-11T08:21:09;15.57;;;9.40;;
18042;SDS011;9146;48.074;11.968;2022-12-11T08:23:37;13.10;;;9.80;;
18042;SDS011;9146;48.074;11.968;2022-12-11T08:26:05;17.50;;;9.57;;
18042;SDS011;9146;48.074;11.968;2022-12-11T08:28:33;13.87;;;9.60;;
18042;SDS011;9146;48.074;11.968;2022-12-11T08:31:02;14.60;;;10.03;;
18042;SDS011;9146;48.074;11.968;2022-12-11T08:33:29;14.30;;;8.70;;
18042;SDS011;9146;48.074;11.968;2022-12-11T08:36:00;16.17;;;9.33;;
18042;SDS011;9146;48.074;11.968;2022-12-11T08:38:28;13.20;;;10.00;;
18042;SDS011;9146;48.074;11.968;2022-12-11T08:40:55;14.50;;;9.53;;
18042;SDS011;9146;48.074;11.968;2022-12-11T08:43:22;15.20;;;9.37;;
18042;SDS011;9146;48.074;11.968;2022-12-11T08:45:49;15.03;;;9.97;;
18042;SDS011;9146;48.074;11.968;2022-12-11T08:48:16;15.00;;;10.60;;
18042;SDS011;9146;48.074;11.968;2022-12-11T08:50:43;17.13;;;11.07;;
18042;SDS011;9146;48.074;11.968;2022-12-11T08:53:11;15.67;;;10.90;;
18042;SDS011;9146;48.074;11.968;2022-12-11T08:55:38;17.43;;;12.37;;
18042;SDS011;9146;48.074;11.968;2022-12-11T08:58:05;14.63;;;9.10;;
18042;SDS011;9146;48.074;11.968;2022-12-11T09:00:32;15.67;;;9.50;;
18042;SDS011;9146;48.074;11.968;2022-12-11T09:02:59;15.53;;;10.90;;
18042;SDS011;9146;48.074;11.968;2022-12-11T09:05:26;18.30;;;11.60;;
18042;SDS011;9146;48.074;11.968;2022-12-11T09:07:53;16.07;;;10.33;;
18042;SDS011;9146;48.074;11.968;2022-12-11T09:10:21;15.50;;;10.83;;
18042;SDS011;9146;48.074;11.968;2022-12-11T09:12:48;17.90;;;11.27;;
18042;SDS011;9146;48.074;11.968;2022-12-11T09:15:15;17.23;;;11.33;;
18042;SDS011;9146;48.074;11.968;2022-12-11T09:17:42;15.30;;;10.67;;
18042;SDS011;9146;48.074;11.968;2022-12-11T09:20:09;14.63;;;10.80;;
18042;SDS011;9146;48.074;11.968;2022-12-11T09:22:36;18.70;;;11.33;;
18042;SDS011;9146;48.074;11.968;2022-12-11T09:25:04;18.93;;;10.93;;
18042;SDS011;9146;48.074;11.968;2022-12-11T09:27:34;16.93;;;11.10;;
18042;SDS011;9146;48.074;11.968;2022-12-11T09:30:01;17.80;;;12.90;;
18042;SDS011;9146;48.074;11.968;2022-12-11T09:32:28;18.27;;;12.00;;
18042;SDS011;9146;48.074;11.968;2022-12-11T09:34:55;14.87;;;10.03;;
18042;SDS011;9146;48.074;11.968;2022-12-11T09:37:22;17.10;;;11.37;;
18042;SDS011;9146;48.074;11.968;2022-12-11T09:39:49;17.47;;;11.57;;
18042;SDS011;9146;48.074;11.968;2022-12-11T09:42:17;20.37;;;12.50;;
18042;SDS011;9146;48.074;11.968;2022-12-11T09:44:51;18.45;;;12.73;;
18042;SDS011;9146;48.074;11.968;2022-12-11T09:47:22;19.90;;;12.77;;
18042;SDS011;9146;48.074;11.968;2022-12-11T09:49:58;17.10;;;11.20;;
18042;SDS011;9146;48.074;11.968;2022-12-11T09:52:31;19.70;;;13.75;;
18042;SDS011;9146;48.074;11.968;2022-12-11T09:55:02;17.30;;;11.80;;
18042;SDS011;9146;48.074;11.968;2022-12-11T09:57:42;15.57;;;10.57;;
18042;SDS011;9146;48.074;11.968;2022-12-11T10:00:21;14.87;;;10.40;;
18042;SDS011;9146;48.074;11.968;2022-12-11T10:03:05;14.60;;;10.27;;
18042;SDS011;9146;48.074;11.968;2022-12-11T10:05:52;19.93;;;11.57;;
18042;SDS011;9146;48.074;11.968;2022-12-11T10:08:27;14.00;;;10.90;;
18042;SDS011;9146;48.074;11.968;2022-12-11T10:11:03;21.10;;;11.73;;
18042;SDS011;9146;48.074;11.968;2022-12-11T10:13:40;15.63;;;10.50;;
18042;SDS011;9146;48.074;11.968;2022-12-11T10:16:18;17.83;;;10.90;;
18042;SDS011;9146;48.074;11.968;2022-12-11T10:18:50;17.40;;;11.47;;
18042;SDS011;9146;48.074;11.968;2022-12-11T10:21:18;16.80;;;10.93;;
18042;SDS011;9146;48.074;11.968;2022-12-11T10:23:47;19.30;;;12.17;;
18042;SDS011;9146;48.074;11.968;2022-12-11T10:26:20;16.47;;;11.03;;
18042;SDS011;9146;48.074;11.968;2022-12-11T10:28:48;17.83;;;9.97;;
18042;SDS011;9146;48.074;11.968;2022-12-11T10:31:18;17.03;;;11.10;;
18042;SDS011;9146;48.074;11.968;2022-12-11T10:33:53;18.80;;;11.93;;
18042;SDS011;9146;48.074;11.968;2022-12-11T10:36:25;18.33;;;11.30;;
18042;SDS011;9146;48.074;11.968;2022-12-11T10:38:54;13.10;;;9.40;;
18042;SDS011;9146;48.074;11.968;2022-12-11T10:41:22;17.70;;;11.93;;
18042;SDS011;9146;48.074;11.968;2022-12-11T10:43:52;15.33;;;9.00;;
18042;SDS011;9146;48.074;11.968;2022-12-11T10:46:21;13.43;;;10.07;;
18042;SDS011;9146;48.074;11.968;2022-12-11T10:48:50;14.33;;;8.83;;
18042;SDS011;9146;48.074;11.968;2022-12-11T10:51:19;14.70;;;9.53;;
18042;SDS011;9146;48.074;11.968;2022-12-11T10:53:48;16.73;;;9.57;;
18042;SDS011;9146;48.074;11.968;2022-12-11T10:56:23;12.83;;;9.40;;
18042;SDS011;9146;48.074;11.968;2022-12-11T10:58:51;15.73;;;8.00;;
18042;SDS011;9146;48.074;11.968;2022-12-11T11:01:18;14.00;;;9.27;;
18042;SDS011;9146;48.074;11.968;2022-12-11T11:03:53;15.57;;;9.83;;
18042;SDS011;9146;48.074;11.968;2022-12-11T11:06:25;17.50;;;10.70;;
18042;SDS011;9146;48.074;11.968;2022-12-11T11:08:56;15.30;;;9.57;;
18042;SDS011;9146;48.074;11.968;2022-12-11T11:11:27;11.33;;;8.23;;
18042;SDS011;9146;48.074;11.968;2022-12-11T11:14:04;15.80;;;10.27;;
18042;SDS011;9146;48.074;11.968;2022-12-11T11:16:35;12.97;;;9.47;;
18042;SDS011;9146;48.074;11.968;2022-12-11T11:19:03;15.33;;;10.00;;
18042;SDS011;9146;48.074;11.968;2022-12-11T11:21:33;9.53;;;8.53;;
18042;SDS011;9146;48.074;11.968;2022-12-11T11:24:01;13.40;;;8.80;;
18042;SDS011;9146;48.074;11.968;2022-12-11T11:26:30;11.30;;;7.77;;
18042;SDS011;9146;48.074;11.968;2022-12-11T11:28:58;11.20;;;7.47;;
18042;SDS011;9146;48.074;11.968;2022-12-11T11:31:29;13.70;;;9.37;;
18042;SDS011;9146;48.074;11.968;2022-12-11T11:34:00;10.33;;;8.53;;
18042;SDS011;9146;48.074;11.968;2022-12-11T11:36:30;13.87;;;8.50;;
18042;SDS011;9146;48.074;11.968;2022-12-11T11:39:02;10.40;;;7.30;;
18042;SDS011;9146;48.074;11.968;2022-12-11T11:41:41;9.50;;;7.73;;
18042;SDS011;9146;48.074;11.968;2022-12-11T11:44:14;10.60;;;7.80;;
18042;SDS011;9146;48.074;11.968;2022-12-11T11:46:52;10.77;;;7.83;;
18042;SDS011;9146;48.074;11.968;2022-12-11T11:49:24;14.30;;;9.60;;
18042;SDS011;9146;48.074;11.968;2022-12-11T11:52:01;13.57;;;8.97;;
18042;SDS011;9146;48.074;11.968;2022-12-11T11:54:38;14.53;;;9.90;;
18042;SDS011;9146;48.074;11.968;2022-12-11T11:57:10;11.33;;;8.17;;
18042;SDS011;9146;48.074;11.968;2022-12-11T11:59:42;12.23;;;8.40;;
18042;SDS011;9146;48.074;11.968;2022-12-11T12:02:13;13.30;;;8.97;;
18042;SDS011;9146;48.074;11.968;2022-12-11T12:04:44;13.27;;;8.50;;
18042;SDS011;9146;48.074;11.968;2022-12-11T12:07:17;12.63;;;8.83;;
18042;SDS011;9146;48.074;11.968;2022-12-11T12:09:57;10.90;;;8.20;;
18042;SDS011;9146;48.074;11.968;2022-12-11T12:12:36;12.47;;;9.43;;
18042;SDS011;9146;48.074;11.968;2022-12-11T12:15:17;10.43;;;8.63;;
18042;SDS011;9146;48.074;11.968;2022-12-11T12:17:51;14.93;;;8.17;;
18042;SDS011;9146;48.074;11.968;2022-12-11T12:20:23;12.20;;;8.20;;
18042;SDS011;9146;48.074;11.968;2022-12-11T12:23:02;11.67;;;8.33;;
18042;SDS011;9146;48.074;11.968;2022-12-11T12:25:44;12.87;;;8.40;;
18042;SDS011;9146;48.074;11.968;2022-12-11T12:28:16;10.53;;;8.57;;
18042;SDS011;9146;48.074;11.968;2022-12-11T12:30:59;10.00;;;7.10;;
18042;SDS011;9146;48.074;11.968;2022-12-11T12:33:39;7.90;;;6.33;;
18042;SDS011;9146;48.074;11.968;2022-12-11T12:36:18;11.87;;;8.17;;
18042;SDS011;9146;48.074;11.968;2022-12-11T12:38:52;8.27;;;7.33;;
18042;SDS011;9146;48.074;11.968;2022-12-11T12:41:21;10.80;;;7.63;;
18042;SDS011;9146;48.074;11.968;2022-12-11T12:43:59;9.47;;;7.57;;
18042;SDS011;9146;48.074;11.968;2022-12-11T12:46:40;12.10;;;8.03;;
18042;SDS011;9146;48.074;11.968;2022-12-11T12:49:28;9.40;;;7.07;;
18042;SDS011;9146;48.074;11.968;2022-12-11T12:52:01;11.37;;;7.67;;
18042;SDS011;9146;48.074;11.968;2022-12-11T12:54:30;10.60;;;6.83;;
18042;SDS011;9146;48.074;11.968;2022-12-11T12:56:59;10.17;;;7.60;;
18042;SDS011;9146;48.074;11.968;2022-12-11T12:59:29;11.23;;;7.20;;
18042;SDS011;9146;48.074;11.968;2022-12-11T13:01:57;12.97;;;7.60;;
18042;SDS011;9146;48.074;11.968;2022-12-11T13:04:27;11.20;;;7.63;;
18042;SDS011;9146;48.074;11.968;2022-12-11T13:07:12;8.60;;;6.87;;
18042;SDS011;9146;48.074;11.968;2022-12-11T13:09:42;10.67;;;7.77;;
18042;SDS011;9146;48.074;11.968;2022-12-11T13:12:42;8.23;;;6.73;;
18042;SDS011;9146;48.074;11.968;2022-12-11T13:20:56;10.10;;;6.77;;
18042;SDS011;9146;48.074;11.968;2022-12-11T13:23:27;11.60;;;7.70;;
18042;SDS011;9146;48.074;11.968;2022-12-11T13:25:56;13.70;;;8.47;;
18042;SDS011;9146;48.074;11.968;2022-12-11T13:28:26;10.43;;;8.43;;
18042;SDS011;9146;48.074;11.968;2022-12-11T13:31:00;11.53;;;8.00;;
18042;SDS011;9146;48.074;11.968;2022-12-11T13:33:37;10.77;;;8.00;;
18042;SDS011;9146;48.074;11.968;2022-12-11T13:36:22;12.23;;;8.23;;
18042;SDS011;9146;48.074;11.968;2022-12-11T13:38:54;10.37;;;8.23;;
18042;SDS011;9146;48.074;11.968;2022-12-11T13:41:25;11.43;;;7.90;;
18042;SDS011;9146;48.074;11.968;2022-12-11T13:43:53;11.07;;;7.67;;
18042;SDS011;9146;48.074;11.968;2022-12-11T13:46:23;9.80;;;7.63;;
18042;SDS011;9146;48.074;11.968;2022-12-11T13:48:54;9.10;;;7.73;;
18042;SDS011;9146;48.074;11.968;2022-12-11T13:51:25;11.40;;;8.60;;
18042;SDS011;9146;48.074;11.968;2022-12-11T13:54:06;9.73;;;7.00;;
18042;SDS011;9146;48.074;11.968;2022-12-11T13:56:40;9.30;;;6.80;;
18042;SDS011;9146;48.074;11.968;2022-12-11T13:59:23;10.30;;;6.50;;
18042;SDS011;9146;48.074;11.968;2022-12-11T14:01:52;8.40;;;6.70;;
18042;SDS011;9146;48.074;11.968;2022-12-11T14:04:22;8.67;;;5.90;;
18042;SDS011;9146;48.074;11.968;2022-12-11T14:06:52;9.30;;;6.80;;
18042;SDS011;9146;48.074;11.968;2022-12-11T14:09:22;9.07;;;7.53;;
18042;SDS011;9146;48.074;11.968;2022-12-11T14:11:51;12.17;;;7.00;;
18042;SDS011;9146;48.074;11.968;2022-12-11T14:14:22;8.53;;;6.90;;
18042;SDS011;9146;48.074;11.968;2022-12-11T14:16:53;12.10;;;8.93;;
18042;SDS011;9146;48.074;11.968;2022-12-11T14:19:20;8.20;;;6.67;;
18042;SDS011;9146;48.074;11.968;2022-12-11T14:21:58;12.23;;;7.70;;
18042;SDS011;9146;48.074;11.968;2022-12-11T14:24:28;8.53;;;6.93;;
18042;SDS011;9146;48.074;11.968;2022-12-11T14:26:56;9.90;;;6.43;;
18042;SDS011;9146;48.074;11.968;2022-12-11T14:29:25;7.47;;;6.13;;
18042;SDS011;9146;48.074;11.968;2022-12-11T14:31:53;9.37;;;6.17;;
18042;SDS011;9146;48.074;11.968;2022-12-11T14:34:23;8.07;;;6.03;;
18042;SDS011;9146;48.074;11.968;2022-12-11T14:36:51;8.67;;;6.33;;
18042;SDS011;9146;48.074;11.968;2022-12-11T14:39:19;9.30;;;6.57;;
18042;SDS011;9146;48.074;11.968;2022-12-11T14:41:53;6.67;;;5.97;;
18042;SDS011;9146;48.074;11.968;2022-12-11T14:44:26;8.33;;;5.50;;
18042;SDS011;9146;48.074;11.968;2022-12-11T14:46:56;9.33;;;6.87;;
18042;SDS011;9146;48.074;11.968;2022-12-11T14:49:28;8.73;;;6.37;;
18042;SDS011;9146;48.074;11.968;2022-12-11T14:52:01;7.07;;;6.37;;
18042;SDS011;9146;48.074;11.968;2022-12-11T14:54:30;10.50;;;7.07;;